sensor_id;sensor_type;location;lat;lon;timestamp;temperature;humidity
64198;SHT31;50512;53.666;9.700;2023-07-31T00:02:10;14.49;99.67
64198;SHT31;50512;53.666;9.700;2023-07-31T00:04:36;14.49;99.71
64198;SHT31;50512;53.666;9.700;2023-07-31T00:07:03;14.49;99.61
64198;SHT31;50512;53.666;9.700;2023-07-31T00:09:32;14.50;99.70
64198;SHT31;50512;53.666;9.700;2023-07-31T00:12:00;14.46;99.96
64198;SHT31;50512;53.666;9.700;2023-07-31T00:14:26;14.50;99.68
64198;SHT31;50512;53.666;9.700;2023-07-31T00:16:53;14.53;99.90
64198;SHT31;50512;53.666;9.700;2023-07-31T00:19:19;14.59;99.63
64198;SHT31;50512;53.666;9.700;2023-07-31T00:21:45;14.66;98.97
64198;SHT31;50512;53.666;9.700;2023-07-31T00:24:12;14.70;99.15
64198;SHT31;50512;53.666;9.700;2023-07-31T00:26:38;14.72;98.97
64198;SHT31;50512;53.666;9.700;2023-07-31T00:29:06;14.77;98.76
64198;SHT31;50512;53.666;9.700;2023-07-31T00:31:33;14.79;98.39
64198;SHT31;50512;53.666;9.700;2023-07-31T00:33:59;14.72;99.00
64198;SHT31;50512;53.666;9.700;2023-07-31T00:36:25;14.65;99.08
64198;SHT31;50512;53.666;9.700;2023-07-31T00:38:52;14.63;98.84
64198;SHT31;50512;53.666;9.700;2023-07-31T00:41:18;14.57;99.13
64198;SHT31;50512;53.666;9.700;2023-07-31T00:43:45;14.56;98.93
64198;SHT31;50512;53.666;9.700;2023-07-31T00:46:12;14.59;98.86
64198;SHT31;50512;53.666;9.700;2023-07-31T00:48:40;14.62;98.56
64198;SHT31;50512;53.666;9.700;2023-07-31T00:51:07;14.56;98.84
64198;SHT31;50512;53.666;9.700;2023-07-31T00:53:34;14.52;99.06
64198;SHT31;50512;53.666;9.700;2023-07-31T00:56:00;14.49;99.00
64198;SHT31;50512;53.666;9.700;2023-07-31T00:58:27;14.50;99.14
64198;SHT31;50512;53.666;9.700;2023-07-31T01:00:53;14.42;99.09
64198;SHT31;50512;53.666;9.700;2023-07-31T01:03:21;14.45;98.75
64198;SHT31;50512;53.666;9.700;2023-07-31T01:05:56;14.50;98.16
64198;SHT31;50512;53.666;9.700;2023-07-31T01:08:33;14.52;98.09
64198;SHT31;50512;53.666;9.700;2023-07-31T01:11:06;14.50;97.88
64198;SHT31;50512;53.666;9.700;2023-07-31T01:13:34;14.46;97.71
64198;SHT31;50512;53.666;9.700;2023-07-31T01:16:00;14.48;97.79
64198;SHT31;50512;53.666;9.700;2023-07-31T01:18:28;14.45;97.71
64198;SHT31;50512;53.666;9.700;2023-07-31T01:20:58;14.45;97.88
64198;SHT31;50512;53.666;9.700;2023-07-31T01:23:50;14.38;98.18
64198;SHT31;50512;53.666;9.700;2023-07-31T01:26:21;14.38;98.36
64198;SHT31;50512;53.666;9.700;2023-07-31T01:28:55;14.45;98.52
64198;SHT31;50512;53.666;9.700;2023-07-31T01:31:23;14.42;98.25
64198;SHT31;50512;53.666;9.700;2023-07-31T01:33:50;14.42;98.71
64198;SHT31;50512;53.666;9.700;2023-07-31T01:36:18;14.39;98.79
64198;SHT31;50512;53.666;9.700;2023-07-31T01:38:45;14.36;98.91
64198;SHT31;50512;53.666;9.700;2023-07-31T01:41:11;14.29;98.94
64198;SHT31;50512;53.666;9.700;2023-07-31T01:43:39;14.32;98.86
64198;SHT31;50512;53.666;9.700;2023-07-31T01:46:06;14.25;99.04
64198;SHT31;50512;53.666;9.700;2023-07-31T01:48:32;14.25;99.30
64198;SHT31;50512;53.666;9.700;2023-07-31T01:51:02;14.24;99.25
64198;SHT31;50512;53.666;9.700;2023-07-31T01:53:28;14.19;99.52
64198;SHT31;50512;53.666;9.700;2023-07-31T01:55:55;14.17;99.84
64198;SHT31;50512;53.666;9.700;2023-07-31T01:58:21;14.12;99.90
64198;SHT31;50512;53.666;9.700;2023-07-31T02:00:49;14.14;99.96
64198;SHT31;50512;53.666;9.700;2023-07-31T02:03:16;14.07;99.99
64198;SHT31;50512;53.666;9.700;2023-07-31T02:05:44;14.14;99.99
64198;SHT31;50512;53.666;9.700;2023-07-31T02:08:11;14.15;99.99
64198;SHT31;50512;53.666;9.700;2023-07-31T02:10:37;14.17;99.99
64198;SHT31;50512;53.666;9.700;2023-07-31T02:13:03;14.21;99.99
64198;SHT31;50512;53.666;9.700;2023-07-31T02:15:30;14.24;99.99
64198;SHT31;50512;53.666;9.700;2023-07-31T02:17:58;14.21;99.99
64198;SHT31;50512;53.666;9.700;2023-07-31T02:20:25;14.18;99.99
64198;SHT31;50512;53.666;9.700;2023-07-31T02:22:51;14.26;99.99
64198;SHT31;50512;53.666;9.700;2023-07-31T02:25:18;14.32;99.99
64198;SHT31;50512;53.666;9.700;2023-07-31T02:27:44;14.39;99.99
64198;SHT31;50512;53.666;9.700;2023-07-31T02:30:11;14.38;99.99
64198;SHT31;50512;53.666;9.700;2023-07-31T02:32:37;14.38;99.99
64198;SHT31;50512;53.666;9.700;2023-07-31T02:35:06;14.39;99.99
64198;SHT31;50512;53.666;9.700;2023-07-31T02:37:33;14.39;99.99
64198;SHT31;50512;53.666;9.700;2023-07-31T02:40:00;14.45;99.99
64198;SHT31;50512;53.666;9.700;2023-07-31T02:42:26;14.43;99.99
64198;SHT31;50512;53.666;9.700;2023-07-31T02:44:53;14.48;99.99
64198;SHT31;50512;53.666;9.700;2023-07-31T02:47:21;14.46;99.99
64198;SHT31;50512;53.666;9.700;2023-07-31T02:49:47;14.43;99.99
64198;SHT31;50512;53.666;9.700;2023-07-31T02:52:15;14.45;99.99
64198;SHT31;50512;53.666;9.700;2023-07-31T02:54:41;14.45;99.99
64198;SHT31;50512;53.666;9.700;2023-07-31T02:57:08;14.48;99.99
64198;SHT31;50512;53.666;9.700;2023-07-31T02:59:34;14.48;99.99
64198;SHT31;50512;53.666;9.700;2023-07-31T03:02:01;14.42;99.99
64198;SHT31;50512;53.666;9.700;2023-07-31T03:04:27;14.42;99.99
64198;SHT31;50512;53.666;9.700;2023-07-31T03:06:53;14.43;99.99
64198;SHT31;50512;53.666;9.700;2023-07-31T03:09:21;14.48;99.99
64198;SHT31;50512;53.666;9.700;2023-07-31T03:11:48;14.50;99.99
64198;SHT31;50512;53.666;9.700;2023-07-31T03:14:14;14.48;99.99
64198;SHT31;50512;53.666;9.700;2023-07-31T03:16:41;14.49;99.99
64198;SHT31;50512;53.666;9.700;2023-07-31T03:19:07;14.46;99.99
64198;SHT31;50512;53.666;9.700;2023-07-31T03:21:33;14.45;99.99
64198;SHT31;50512;53.666;9.700;2023-07-31T03:24:00;14.50;99.99
64198;SHT31;50512;53.666;9.700;2023-07-31T03:26:31;14.56;99.99
64198;SHT31;50512;53.666;9.700;2023-07-31T03:28:57;14.53;99.99
64198;SHT31;50512;53.666;9.700;2023-07-31T03:31:24;14.60;99.99
64198;SHT31;50512;53.666;9.700;2023-07-31T03:33:50;14.60;99.99
64198;SHT31;50512;53.666;9.700;2023-07-31T03:36:17;14.65;99.99
64198;SHT31;50512;53.666;9.700;2023-07-31T03:38:43;14.66;99.99
64198;SHT31;50512;53.666;9.700;2023-07-31T03:41:10;14.69;99.99
64198;SHT31;50512;53.666;9.700;2023-07-31T03:43:38;14.72;99.99
64198;SHT31;50512;53.666;9.700;2023-07-31T03:46:04;14.73;99.99
64198;SHT31;50512;53.666;9.700;2023-07-31T03:48:30;14.81;99.99
64198;SHT31;50512;53.666;9.700;2023-07-31T03:50:57;14.83;99.99
64198;SHT31;50512;53.666;9.700;2023-07-31T03:53:24;14.86;99.99
64198;SHT31;50512;53.666;9.700;2023-07-31T03:55:50;14.90;99.99
64198;SHT31;50512;53.666;9.700;2023-07-31T03:58:16;14.93;99.99
64198;SHT31;50512;53.666;9.700;2023-07-31T04:00:45;14.93;99.99
64198;SHT31;50512;53.666;9.700;2023-07-31T04:03:11;14.95;99.99
64198;SHT31;50512;53.666;9.700;2023-07-31T04:05:38;14.95;99.99
64198;SHT31;50512;53.666;9.700;2023-07-31T04:08:05;14.94;99.99
64198;SHT31;50512;53.666;9.700;2023-07-31T04:10:31;14.94;99.99
64198;SHT31;50512;53.666;9.700;2023-07-31T04:12:58;14.95;99.99
64198;SHT31;50512;53.666;9.700;2023-07-31T04:15:25;14.94;99.99
64198;SHT31;50512;53.666;9.700;2023-07-31T04:17:53;14.98;99.99
64198;SHT31;50512;53.666;9.700;2023-07-31T04:20:19;15.01;99.99
64198;SHT31;50512;53.666;9.700;2023-07-31T04:22:46;15.03;99.99
64198;SHT31;50512;53.666;9.700;2023-07-31T04:25:12;15.04;99.99
64198;SHT31;50512;53.666;9.700;2023-07-31T04:27:39;15.03;99.99
64198;SHT31;50512;53.666;9.700;2023-07-31T04:30:07;15.07;99.99
64198;SHT31;50512;53.666;9.700;2023-07-31T04:32:33;15.10;99.99
64198;SHT31;50512;53.666;9.700;2023-07-31T04:35:02;15.11;99.99
64198;SHT31;50512;53.666;9.700;2023-07-31T04:37:28;15.08;99.99
64198;SHT31;50512;53.666;9.700;2023-07-31T04:39:55;15.11;99.99
64198;SHT31;50512;53.666;9.700;2023-07-31T04:42:21;15.11;99.99
64198;SHT31;50512;53.666;9.700;2023-07-31T04:44:48;15.10;99.99
64198;SHT31;50512;53.666;9.700;2023-07-31T04:47:14;15.08;99.99
64198;SHT31;50512;53.666;9.700;2023-07-31T04:49:40;15.10;99.99
64198;SHT31;50512;53.666;9.700;2023-07-31T04:52:08;15.10;99.99
64198;SHT31;50512;53.666;9.700;2023-07-31T04:54:35;15.12;99.99
64198;SHT31;50512;53.666;9.700;2023-07-31T04:57:01;15.14;99.99
64198;SHT31;50512;53.666;9.700;2023-07-31T04:59:28;15.12;99.99
64198;SHT31;50512;53.666;9.700;2023-07-31T05:01:54;15.11;99.99
64198;SHT31;50512;53.666;9.700;2023-07-31T05:04:21;15.12;99.99
64198;SHT31;50512;53.666;9.700;2023-07-31T05:06:47;15.10;99.99
64198;SHT31;50512;53.666;9.700;2023-07-31T05:09:15;15.12;99.99
64198;SHT31;50512;53.666;9.700;2023-07-31T05:11:42;15.17;99.99
64198;SHT31;50512;53.666;9.700;2023-07-31T05:14:08;15.11;99.99
64198;SHT31;50512;53.666;9.700;2023-07-31T05:16:35;15.14;99.99
64198;SHT31;50512;53.666;9.700;2023-07-31T05:19:01;15.10;99.99
64198;SHT31;50512;53.666;9.700;2023-07-31T05:21:28;15.11;99.99
64198;SHT31;50512;53.666;9.700;2023-07-31T05:23:54;15.08;99.99
64198;SHT31;50512;53.666;9.700;2023-07-31T05:26:22;15.10;99.99
64198;SHT31;50512;53.666;9.700;2023-07-31T05:28:48;15.12;99.99
64198;SHT31;50512;53.666;9.700;2023-07-31T05:31:15;15.08;99.99
64198;SHT31;50512;53.666;9.700;2023-07-31T05:33:41;15.10;99.99
64198;SHT31;50512;53.666;9.700;2023-07-31T05:36:08;15.11;99.99
64198;SHT31;50512;53.666;9.700;2023-07-31T05:38:34;15.10;99.99
64198;SHT31;50512;53.666;9.700;2023-07-31T05:41:01;15.15;99.99
64198;SHT31;50512;53.666;9.700;2023-07-31T05:43:29;15.10;99.99
64198;SHT31;50512;53.666;9.700;2023-07-31T05:45:55;15.12;99.99
64198;SHT31;50512;53.666;9.700;2023-07-31T05:48:21;15.15;99.99
64198;SHT31;50512;53.666;9.700;2023-07-31T05:50:48;15.17;99.99
64198;SHT31;50512;53.666;9.700;2023-07-31T05:53:14;15.15;99.99
64198;SHT31;50512;53.666;9.700;2023-07-31T05:55:41;15.18;99.99
64198;SHT31;50512;53.666;9.700;2023-07-31T05:58:07;15.22;99.99
64198;SHT31;50512;53.666;9.700;2023-07-31T06:00:35;15.24;99.99
64198;SHT31;50512;53.666;9.700;2023-07-31T06:03:02;15.22;99.99
64198;SHT31;50512;53.666;9.700;2023-07-31T06:05:29;15.25;99.99
64198;SHT31;50512;53.666;9.700;2023-07-31T06:07:56;15.25;99.99
64198;SHT31;50512;53.666;9.700;2023-07-31T06:10:23;15.31;99.99
64198;SHT31;50512;53.666;9.700;2023-07-31T06:12:49;15.25;99.99
64198;SHT31;50512;53.666;9.700;2023-07-31T06:15:16;15.27;99.99
64198;SHT31;50512;53.666;9.700;2023-07-31T06:17:44;15.25;99.99
64198;SHT31;50512;53.666;9.700;2023-07-31T06:20:11;15.28;99.99
64198;SHT31;50512;53.666;9.700;2023-07-31T06:22:37;15.29;99.99
64198;SHT31;50512;53.666;9.700;2023-07-31T06:25:04;15.28;99.99
64198;SHT31;50512;53.666;9.700;2023-07-31T06:27:31;15.36;99.99
64198;SHT31;50512;53.666;9.700;2023-07-31T06:29:57;15.28;99.99
64198;SHT31;50512;53.666;9.700;2023-07-31T06:32:24;15.29;99.99
64198;SHT31;50512;53.666;9.700;2023-07-31T06:34:52;15.25;99.99
64198;SHT31;50512;53.666;9.700;2023-07-31T06:37:19;15.28;99.99
64198;SHT31;50512;53.666;9.700;2023-07-31T06:39:45;15.34;99.99
64198;SHT31;50512;53.666;9.700;2023-07-31T06:42:12;15.34;99.99
64198;SHT31;50512;53.666;9.700;2023-07-31T06:44:38;15.39;99.99
64198;SHT31;50512;53.666;9.700;2023-07-31T06:47:05;15.40;99.99
64198;SHT31;50512;53.666;9.700;2023-07-31T06:49:34;15.42;99.99
64198;SHT31;50512;53.666;9.700;2023-07-31T06:52:02;15.42;99.99
64198;SHT31;50512;53.666;9.700;2023-07-31T06:54:28;15.40;99.99
64198;SHT31;50512;53.666;9.700;2023-07-31T06:56:55;15.50;99.99
64198;SHT31;50512;53.666;9.700;2023-07-31T06:59:21;15.46;99.99
64198;SHT31;50512;53.666;9.700;2023-07-31T07:01:47;15.50;99.99
64198;SHT31;50512;53.666;9.700;2023-07-31T07:04:14;15.53;99.99
64198;SHT31;50512;53.666;9.700;2023-07-31T07:06:40;15.56;99.99
64198;SHT31;50512;53.666;9.700;2023-07-31T07:09:08;15.50;99.99
64198;SHT31;50512;53.666;9.700;2023-07-31T07:11:35;15.49;99.99
64198;SHT31;50512;53.666;9.700;2023-07-31T07:14:02;15.52;99.99
64198;SHT31;50512;53.666;9.700;2023-07-31T07:16:29;15.56;99.99
64198;SHT31;50512;53.666;9.700;2023-07-31T07:18:55;15.60;99.99
64198;SHT31;50512;53.666;9.700;2023-07-31T07:21:21;15.53;99.99
64198;SHT31;50512;53.666;9.700;2023-07-31T07:23:48;15.53;99.99
64198;SHT31;50512;53.666;9.700;2023-07-31T07:26:16;15.55;99.99
64198;SHT31;50512;53.666;9.700;2023-07-31T07:28:42;15.58;99.99
64198;SHT31;50512;53.666;9.700;2023-07-31T07:31:09;15.56;99.99
64198;SHT31;50512;53.666;9.700;2023-07-31T07:33:35;15.53;99.99
64198;SHT31;50512;53.666;9.700;2023-07-31T07:36:02;15.56;99.99
64198;SHT31;50512;53.666;9.700;2023-07-31T07:38:29;15.60;99.99
64198;SHT31;50512;53.666;9.700;2023-07-31T07:40:55;15.62;99.99
64198;SHT31;50512;53.666;9.700;2023-07-31T07:43:23;15.66;99.99
64198;SHT31;50512;53.666;9.700;2023-07-31T07:45:49;15.69;99.99
64198;SHT31;50512;53.666;9.700;2023-07-31T07:48:16;15.82;99.99
64198;SHT31;50512;53.666;9.700;2023-07-31T07:50:43;15.82;99.99
64198;SHT31;50512;53.666;9.700;2023-07-31T07:53:09;15.93;99.99
64198;SHT31;50512;53.666;9.700;2023-07-31T07:55:36;15.96;99.99
64198;SHT31;50512;53.666;9.700;2023-07-31T07:58:02;16.04;99.99
64198;SHT31;50512;53.666;9.700;2023-07-31T08:00:30;15.94;99.99
64198;SHT31;50512;53.666;9.700;2023-07-31T08:02:56;16.01;99.99
64198;SHT31;50512;53.666;9.700;2023-07-31T08:05:23;16.07;99.99
64198;SHT31;50512;53.666;9.700;2023-07-31T08:07:50;16.08;99.99
64198;SHT31;50512;53.666;9.700;2023-07-31T08:10:16;16.03;99.99
64198;SHT31;50512;53.666;9.700;2023-07-31T08:12:43;16.10;99.99
64198;SHT31;50512;53.666;9.700;2023-07-31T08:15:09;16.11;99.99
64198;SHT31;50512;53.666;9.700;2023-07-31T08:17:37;16.13;99.99
64198;SHT31;50512;53.666;9.700;2023-07-31T08:20:05;16.04;99.99
64198;SHT31;50512;53.666;9.700;2023-07-31T08:22:32;16.07;99.99
64198;SHT31;50512;53.666;9.700;2023-07-31T08:24:58;16.01;99.99
64198;SHT31;50512;53.666;9.700;2023-07-31T08:27:25;16.04;99.99
64198;SHT31;50512;53.666;9.700;2023-07-31T08:29:51;16.07;99.99
64198;SHT31;50512;53.666;9.700;2023-07-31T08:32:18;16.03;99.99
64198;SHT31;50512;53.666;9.700;2023-07-31T08:34:46;16.11;99.99
64198;SHT31;50512;53.666;9.700;2023-07-31T08:37:12;16.22;99.99
64198;SHT31;50512;53.666;9.700;2023-07-31T08:39:39;16.18;99.99
64198;SHT31;50512;53.666;9.700;2023-07-31T08:42:07;16.14;99.99
64198;SHT31;50512;53.666;9.700;2023-07-31T08:44:34;16.18;99.99
64198;SHT31;50512;53.666;9.700;2023-07-31T08:47:01;16.26;99.99
64198;SHT31;50512;53.666;9.700;2023-07-31T08:49:29;16.21;99.99
64198;SHT31;50512;53.666;9.700;2023-07-31T08:51:58;16.26;99.99
64198;SHT31;50512;53.666;9.700;2023-07-31T08:54:24;16.32;99.99
64198;SHT31;50512;53.666;9.700;2023-07-31T08:56:55;16.24;99.99
64198;SHT31;50512;53.666;9.700;2023-07-31T08:59:23;16.31;99.99
64198;SHT31;50512;53.666;9.700;2023-07-31T09:01:53;16.39;99.99
64198;SHT31;50512;53.666;9.700;2023-07-31T09:04:22;16.41;99.99
64198;SHT31;50512;53.666;9.700;2023-07-31T09:06:49;16.41;99.99
64198;SHT31;50512;53.666;9.700;2023-07-31T09:09:18;16.44;99.99
64198;SHT31;50512;53.666;9.700;2023-07-31T09:11:46;16.28;99.99
64198;SHT31;50512;53.666;9.700;2023-07-31T09:14:13;16.35;99.99
64198;SHT31;50512;53.666;9.700;2023-07-31T09:16:51;16.44;99.99
64198;SHT31;50512;53.666;9.700;2023-07-31T09:19:25;16.25;99.99
64198;SHT31;50512;53.666;9.700;2023-07-31T09:21:52;16.38;99.99
64198;SHT31;50512;53.666;9.700;2023-07-31T09:24:26;16.35;99.99
64198;SHT31;50512;53.666;9.700;2023-07-31T09:26:54;16.28;99.71
64198;SHT31;50512;53.666;9.700;2023-07-31T09:29:20;16.32;99.28
64198;SHT31;50512;53.666;9.700;2023-07-31T09:31:47;16.59;98.51
64198;SHT31;50512;53.666;9.700;2023-07-31T09:34:14;16.48;99.82
64198;SHT31;50512;53.666;9.700;2023-07-31T09:36:41;16.49;99.99
64198;SHT31;50512;53.666;9.700;2023-07-31T09:39:09;16.49;99.99
64198;SHT31;50512;53.666;9.700;2023-07-31T09:41:40;16.55;99.99
64198;SHT31;50512;53.666;9.700;2023-07-31T09:44:06;16.21;99.29
64198;SHT31;50512;53.666;9.700;2023-07-31T09:46:35;16.20;99.99
64198;SHT31;50512;53.666;9.700;2023-07-31T09:49:08;16.15;99.38
64198;SHT31;50512;53.666;9.700;2023-07-31T09:51:35;16.29;99.60
64198;SHT31;50512;53.666;9.700;2023-07-31T09:54:08;16.17;99.99
64198;SHT31;50512;53.666;9.700;2023-07-31T09:56:41;16.10;99.99
64198;SHT31;50512;53.666;9.700;2023-07-31T09:59:07;16.07;99.99
64198;SHT31;50512;53.666;9.700;2023-07-31T10:01:36;16.13;99.99
64198;SHT31;50512;53.666;9.700;2023-07-31T10:04:04;16.05;99.99
64198;SHT31;50512;53.666;9.700;2023-07-31T10:06:33;15.98;99.99
64198;SHT31;50512;53.666;9.700;2023-07-31T10:09:01;16.10;99.99
64198;SHT31;50512;53.666;9.700;2023-07-31T10:11:29;16.15;99.99
64198;SHT31;50512;53.666;9.700;2023-07-31T10:13:58;16.03;99.99
64198;SHT31;50512;53.666;9.700;2023-07-31T10:16:24;15.66;98.31
64198;SHT31;50512;53.666;9.700;2023-07-31T10:18:51;15.63;99.27
64198;SHT31;50512;53.666;9.700;2023-07-31T10:21:18;15.62;99.90
64198;SHT31;50512;53.666;9.700;2023-07-31T10:23:45;15.56;99.99
64198;SHT31;50512;53.666;9.700;2023-07-31T10:26:14;15.73;99.99
64198;SHT31;50512;53.666;9.700;2023-07-31T10:28:41;15.71;99.50
64198;SHT31;50512;53.666;9.700;2023-07-31T10:31:10;15.71;99.99
64198;SHT31;50512;53.666;9.700;2023-07-31T10:33:37;15.53;99.97
64198;SHT31;50512;53.666;9.700;2023-07-31T10:36:13;15.74;99.99
64198;SHT31;50512;53.666;9.700;2023-07-31T10:38:41;15.74;99.80
64198;SHT31;50512;53.666;9.700;2023-07-31T10:41:08;15.62;98.73
64198;SHT31;50512;53.666;9.700;2023-07-31T10:43:36;15.80;99.99
64198;SHT31;50512;53.666;9.700;2023-07-31T10:46:06;15.70;99.42
64198;SHT31;50512;53.666;9.700;2023-07-31T10:48:34;15.70;99.44
64198;SHT31;50512;53.666;9.700;2023-07-31T10:51:07;15.70;97.70
64198;SHT31;50512;53.666;9.700;2023-07-31T10:53:34;15.89;99.26
64198;SHT31;50512;53.666;9.700;2023-07-31T10:56:01;15.74;99.22
64198;SHT31;50512;53.666;9.700;2023-07-31T10:58:28;15.53;98.44
64198;SHT31;50512;53.666;9.700;2023-07-31T11:00:58;15.58;99.64
64198;SHT31;50512;53.666;9.700;2023-07-31T11:03:26;15.56;99.54
64198;SHT31;50512;53.666;9.700;2023-07-31T11:06:00;15.71;99.74
64198;SHT31;50512;53.666;9.700;2023-07-31T11:08:29;15.70;99.99
64198;SHT31;50512;53.666;9.700;2023-07-31T11:11:05;15.59;99.40
64198;SHT31;50512;53.666;9.700;2023-07-31T11:13:34;15.35;99.99
64198;SHT31;50512;53.666;9.700;2023-07-31T11:16:05;15.39;99.57
64198;SHT31;50512;53.666;9.700;2023-07-31T11:18:32;15.63;99.98
64198;SHT31;50512;53.666;9.700;2023-07-31T11:21:00;15.77;99.54
64198;SHT31;50512;53.666;9.700;2023-07-31T11:23:26;15.89;99.76
64198;SHT31;50512;53.666;9.700;2023-07-31T11:25:53;15.80;99.56
64198;SHT31;50512;53.666;9.700;2023-07-31T11:28:25;15.93;98.62
64198;SHT31;50512;53.666;9.700;2023-07-31T11:30:51;16.05;97.51
64198;SHT31;50512;53.666;9.700;2023-07-31T11:33:17;16.17;98.73
64198;SHT31;50512;53.666;9.700;2023-07-31T11:35:45;16.24;98.93
64198;SHT31;50512;53.666;9.700;2023-07-31T11:38:22;16.31;97.99
64198;SHT31;50512;53.666;9.700;2023-07-31T11:40:49;16.36;97.10
64198;SHT31;50512;53.666;9.700;2023-07-31T11:43:17;16.39;96.34
64198;SHT31;50512;53.666;9.700;2023-07-31T11:45:45;16.44;97.10
64198;SHT31;50512;53.666;9.700;2023-07-31T11:48:18;16.29;97.62
64198;SHT31;50512;53.666;9.700;2023-07-31T11:50:45;16.32;97.65
64198;SHT31;50512;53.666;9.700;2023-07-31T11:53:13;16.33;97.12
64198;SHT31;50512;53.666;9.700;2023-07-31T11:55:41;16.39;95.84
64198;SHT31;50512;53.666;9.700;2023-07-31T11:58:08;16.35;96.54
64198;SHT31;50512;53.666;9.700;2023-07-31T12:00:34;16.53;97.39
64198;SHT31;50512;53.666;9.700;2023-07-31T12:03:01;16.65;97.05
64198;SHT31;50512;53.666;9.700;2023-07-31T12:05:28;16.63;97.23
64198;SHT31;50512;53.666;9.700;2023-07-31T12:07:55;16.62;95.46
64198;SHT31;50512;53.666;9.700;2023-07-31T12:10:25;16.14;95.15
64198;SHT31;50512;53.666;9.700;2023-07-31T12:12:58;15.70;97.61
64198;SHT31;50512;53.666;9.700;2023-07-31T12:15:32;15.63;98.71
64198;SHT31;50512;53.666;9.700;2023-07-31T12:17:59;15.86;99.99
64198;SHT31;50512;53.666;9.700;2023-07-31T12:20:25;15.52;99.99
64198;SHT31;50512;53.666;9.700;2023-07-31T12:22:52;15.56;99.99
64198;SHT31;50512;53.666;9.700;2023-07-31T12:25:19;15.76;99.67
64198;SHT31;50512;53.666;9.700;2023-07-31T12:27:45;15.94;99.08
64198;SHT31;50512;53.666;9.700;2023-07-31T12:30:29;16.11;99.72
64198;SHT31;50512;53.666;9.700;2023-07-31T12:32:55;16.33;99.99
64198;SHT31;50512;53.666;9.700;2023-07-31T12:35:22;16.49;99.16
64198;SHT31;50512;53.666;9.700;2023-07-31T12:37:48;16.51;99.39
64198;SHT31;50512;53.666;9.700;2023-07-31T12:40:15;16.03;99.60
64198;SHT31;50512;53.666;9.700;2023-07-31T12:42:41;15.89;99.99
64198;SHT31;50512;53.666;9.700;2023-07-31T12:45:08;16.07;99.99
64198;SHT31;50512;53.666;9.700;2023-07-31T12:47:36;16.01;98.94
64198;SHT31;50512;53.666;9.700;2023-07-31T12:50:03;16.20;99.03
64198;SHT31;50512;53.666;9.700;2023-07-31T12:52:29;16.32;98.11
64198;SHT31;50512;53.666;9.700;2023-07-31T12:54:56;16.24;99.26
64198;SHT31;50512;53.666;9.700;2023-07-31T12:57:22;16.07;99.73
64198;SHT31;50512;53.666;9.700;2023-07-31T12:59:49;16.28;99.99
64198;SHT31;50512;53.666;9.700;2023-07-31T13:02:15;16.39;99.99
64198;SHT31;50512;53.666;9.700;2023-07-31T13:04:43;16.25;98.71
64198;SHT31;50512;53.666;9.700;2023-07-31T13:07:09;16.29;99.62
64198;SHT31;50512;53.666;9.700;2023-07-31T13:09:36;16.18;99.92
64198;SHT31;50512;53.666;9.700;2023-07-31T13:12:03;16.17;99.99
64198;SHT31;50512;53.666;9.700;2023-07-31T13:14:29;16.08;99.99
64198;SHT31;50512;53.666;9.700;2023-07-31T13:16:56;16.28;99.99
64198;SHT31;50512;53.666;9.700;2023-07-31T13:19:22;16.47;99.99
64198;SHT31;50512;53.666;9.700;2023-07-31T13:21:50;16.15;99.99
64198;SHT31;50512;53.666;9.700;2023-07-31T13:24:17;16.10;99.99
64198;SHT31;50512;53.666;9.700;2023-07-31T13:26:43;16.39;99.99
64198;SHT31;50512;53.666;9.700;2023-07-31T13:29:09;16.39;99.99
64198;SHT31;50512;53.666;9.700;2023-07-31T13:31:36;16.53;99.99
64198;SHT31;50512;53.666;9.700;2023-07-31T13:34:02;16.45;99.49
64198;SHT31;50512;53.666;9.700;2023-07-31T13:36:29;16.14;99.99
64198;SHT31;50512;53.666;9.700;2023-07-31T13:38:57;16.18;99.99
64198;SHT31;50512;53.666;9.700;2023-07-31T13:41:23;16.22;99.99
64198;SHT31;50512;53.666;9.700;2023-07-31T13:43:50;16.47;99.99
64198;SHT31;50512;53.666;9.700;2023-07-31T13:46:16;16.07;99.99
64198;SHT31;50512;53.666;9.700;2023-07-31T13:48:42;15.96;99.99
64198;SHT31;50512;53.666;9.700;2023-07-31T13:51:09;16.15;99.99
64198;SHT31;50512;53.666;9.700;2023-07-31T13:53:35;16.24;99.99
64198;SHT31;50512;53.666;9.700;2023-07-31T13:56:03;16.31;99.99
64198;SHT31;50512;53.666;9.700;2023-07-31T13:58:30;16.42;99.99
64198;SHT31;50512;53.666;9.700;2023-07-31T14:00:56;16.26;99.99
64198;SHT31;50512;53.666;9.700;2023-07-31T14:03:23;16.35;99.99
64198;SHT31;50512;53.666;9.700;2023-07-31T14:05:49;16.53;99.99
64198;SHT31;50512;53.666;9.700;2023-07-31T14:08:16;16.63;99.99
64198;SHT31;50512;53.666;9.700;2023-07-31T14:10:42;16.72;99.99
64198;SHT31;50512;53.666;9.700;2023-07-31T14:13:10;16.42;99.99
64198;SHT31;50512;53.666;9.700;2023-07-31T14:15:37;16.36;99.99
64198;SHT31;50512;53.666;9.700;2023-07-31T14:18:03;16.24;99.99
64198;SHT31;50512;53.666;9.700;2023-07-31T14:20:30;16.31;99.99
64198;SHT31;50512;53.666;9.700;2023-07-31T14:22:56;16.42;99.99
64198;SHT31;50512;53.666;9.700;2023-07-31T14:25:23;16.32;99.99
64198;SHT31;50512;53.666;9.700;2023-07-31T14:27:49;16.52;99.99
64198;SHT31;50512;53.666;9.700;2023-07-31T14:30:17;16.45;99.99
64198;SHT31;50512;53.666;9.700;2023-07-31T14:32:44;16.49;99.99
64198;SHT31;50512;53.666;9.700;2023-07-31T14:35:10;16.58;99.99
64198;SHT31;50512;53.666;9.700;2023-07-31T14:37:37;16.76;99.99
64198;SHT31;50512;53.666;9.700;2023-07-31T14:40:05;17.03;99.99
64198;SHT31;50512;53.666;9.700;2023-07-31T14:42:32;17.04;99.99
64198;SHT31;50512;53.666;9.700;2023-07-31T14:44:58;16.73;99.99
64198;SHT31;50512;53.666;9.700;2023-07-31T14:47:26;16.52;99.99
64198;SHT31;50512;53.666;9.700;2023-07-31T14:49:52;16.58;99.99
64198;SHT31;50512;53.666;9.700;2023-07-31T14:52:19;16.53;99.99
64198;SHT31;50512;53.666;9.700;2023-07-31T14:54:45;16.63;99.99
64198;SHT31;50512;53.666;9.700;2023-07-31T14:57:12;16.53;99.99
64198;SHT31;50512;53.666;9.700;2023-07-31T14:59:38;16.63;99.99
64198;SHT31;50512;53.666;9.700;2023-07-31T15:02:05;16.60;99.99
64198;SHT31;50512;53.666;9.700;2023-07-31T15:04:33;16.69;99.99
64198;SHT31;50512;53.666;9.700;2023-07-31T15:07:03;16.77;99.99
64198;SHT31;50512;53.666;9.700;2023-07-31T15:09:29;16.70;99.99
64198;SHT31;50512;53.666;9.700;2023-07-31T15:11:56;16.70;99.99
64198;SHT31;50512;53.666;9.700;2023-07-31T15:14:23;16.79;99.99
64198;SHT31;50512;53.666;9.700;2023-07-31T15:16:50;16.83;99.99
64198;SHT31;50512;53.666;9.700;2023-07-31T15:19:17;16.90;99.99
64198;SHT31;50512;53.666;9.700;2023-07-31T15:21:44;16.93;99.99
64198;SHT31;50512;53.666;9.700;2023-07-31T15:24:12;16.75;99.99
64198;SHT31;50512;53.666;9.700;2023-07-31T15:26:41;16.66;99.99
64198;SHT31;50512;53.666;9.700;2023-07-31T15:29:08;16.56;99.99
64198;SHT31;50512;53.666;9.700;2023-07-31T15:31:37;16.52;99.99